Time;durP1;ratioP1;P1;durP2;ratioP2;P2;SDS_P1;SDS_P2;PMS_P1;PMS_P2;Temp;Humidity;BMP_temperature;BMP_pressure;BME280_temperature;BME280_humidity;BME280_pressure;Samples;Min_cycle;Max_cycle;Signal;HPM_P1;HPM_P2
2021/12/29 00:00:36;;;;;;;0.10;0.10;;;;;;;11.88;71.63;100156.91;5144539;27;20039;-86
2021/12/29 00:03:03;;;;;;;0.20;0.20;;;;;;;11.91;71.21;100167.44;5141265;27;20027;-86
2021/12/29 00:05:30;;;;;;;0.10;0.10;;;;;;;11.84;72.11;100175.66;5142372;27;20035;-85
2021/12/29 00:07:57;;;;;;;0.10;0.10;;;;;;;11.85;71.81;100188.91;5142987;27;20026;-85
2021/12/29 00:10:23;;;;;;;0.20;0.20;;;;;;;11.90;71.53;100181.63;5137697;27;20055;-89
2021/12/29 00:12:52;;;;;;;0.13;0.13;;;;;;;11.73;72.24;100194.63;5140342;27;20026;-87
2021/12/29 00:15:24;;;;;;;0.10;0.10;;;;;;;11.90;71.48;100192.25;5143502;27;20043;-85
2021/12/29 00:17:51;;;;;;;0.10;0.10;;;;;;;11.85;71.51;100198.63;5145150;27;20026;-87
2021/12/29 00:20:28;;;;;;;0.25;0.25;;;;;;;11.92;71.55;100203.66;5146143;27;20027;-89
2021/12/29 00:22:57;;;;;;;0.28;0.28;;;;;;;11.92;71.24;100210.78;5127397;27;20039;-85
2021/12/29 00:25:23;;;;;;;0.25;0.25;;;;;;;11.88;71.94;100222.44;5139702;27;20408;-83
2021/12/29 00:27:50;;;;;;;0.10;0.10;;;;;;;11.78;72.19;100228.03;5144903;27;20023;-90
2021/12/29 00:30:16;;;;;;;0.10;0.10;;;;;;;11.88;71.86;100231.25;5145346;27;20035;-75
2021/12/29 00:32:43;;;;;;;0.10;0.10;;;;;;;11.88;71.40;100225.94;5141616;27;20446;-81
2021/12/29 00:35:14;;;;;;;2.70;2.47;;;;;;;11.75;72.33;100229.94;5146312;27;20031;-85
2021/12/29 00:37:41;;;;;;;0.15;0.15;;;;;;;11.80;72.15;100242.13;5146187;27;20034;-88
2021/12/29 00:40:28;;;;;;;0.10;0.10;;;;;;;11.91;71.68;100251.50;5128302;27;20435;-89
2021/12/29 00:42:55;;;;;;;0.10;0.10;;;;;;;11.89;71.34;100259.53;5142764;27;20047;-87
2021/12/29 00:45:22;;;;;;;0.10;0.10;;;;;;;11.85;71.64;100255.25;5145132;27;20061;-90
2021/12/29 00:47:50;;;;;;;0.10;0.10;;;;;;;11.95;70.92;100248.69;5155253;27;20026;-88
2021/12/29 00:50:18;;;;;;;0.10;0.10;;;;;;;11.97;71.00;100265.47;5144742;27;20552;-86
2021/12/29 00:52:53;;;;;;;0.20;0.20;;;;;;;11.86;71.53;100259.63;5142763;27;20023;-88
2021/12/29 00:55:19;;;;;;;0.10;0.10;;;;;;;11.97;70.86;100267.25;5145685;27;20041;-87
2021/12/29 00:57:51;;;;;;;0.10;0.10;;;;;;;11.91;71.68;100268.31;5148508;27;20110;-88
2021/12/29 01:00:20;;;;;;;0.10;0.10;;;;;;;11.97;70.68;100273.44;5147077;27;20019;-89
2021/12/29 01:02:48;;;;;;;0.10;0.10;;;;;;;11.97;71.11;100278.75;5139721;27;20031;-88
2021/12/29 01:05:15;;;;;;;0.45;0.45;;;;;;;11.97;71.04;100300.00;5134079;27;20059;-86
2021/12/29 01:07:44;;;;;;;0.10;0.10;;;;;;;11.98;70.75;100296.41;5146401;27;20023;-85
2021/12/29 01:10:13;;;;;;;0.10;0.10;;;;;;;12.06;70.28;100303.22;5127421;27;20047;-88
2021/12/29 01:12:46;;;;;;;0.10;0.10;;;;;;;12.08;70.54;100327.94;5138817;27;20031;-88
2021/12/29 01:15:17;;;;;;;0.10;0.10;;;;;;;12.07;70.74;100332.38;5119031;27;20066;-87
2021/12/29 01:17:43;;;;;;;0.10;0.10;;;;;;;12.08;70.71;100335.91;5119393;27;20080;-82
2021/12/29 01:20:10;;;;;;;0.10;0.10;;;;;;;12.11;70.22;100330.50;5142299;27;20030;-87
2021/12/29 01:22:36;;;;;;;0.10;0.10;;;;;;;12.05;70.45;100343.97;5144789;27;20078;-88
2021/12/29 01:25:03;;;;;;;0.85;0.80;;;;;;;12.04;70.52;100336.97;5145473;27;20031;-88
2021/12/29 01:27:35;;;;;;;0.03;0.03;;;;;;;12.13;70.22;100339.28;5101459;27;20028;-87
2021/12/29 01:30:08;;;;;;;0.20;0.20;;;;;;;12.17;69.83;100346.22;5142791;27;20124;-88
2021/12/29 01:32:35;;;;;;;0.10;0.10;;;;;;;12.14;70.25;100357.81;5136015;27;20026;-87
2021/12/29 01:35:02;;;;;;;0.05;0.05;;;;;;;12.16;70.08;100362.22;5119631;27;20035;-87
2021/12/29 01:37:29;;;;;;;0.10;0.10;;;;;;;12.07;70.12;100364.25;5118167;27;20494;-86
2021/12/29 01:39:55;;;;;;;0.10;0.10;;;;;;;12.16;69.84;100372.81;5147200;27;20031;-88
2021/12/29 01:42:23;;;;;;;0.20;0.20;;;;;;;12.17;69.54;100380.75;5145528;27;20430;-86
2021/12/29 01:44:49;;;;;;;0.10;0.10;;;;;;;12.22;69.71;100362.00;5147992;27;20027;-84
2021/12/29 01:47:26;;;;;;;0.10;0.10;;;;;;;12.22;69.53;100364.66;5137968;27;20474;-88
2021/12/29 01:49:53;;;;;;;0.10;0.10;;;;;;;12.22;69.81;100377.94;5144461;27;20386;-82
2021/12/29 01:52:24;;;;;;;0.10;0.10;;;;;;;12.18;69.63;100377.16;5154679;27;20146;-85
2021/12/29 01:54:50;;;;;;;0.90;0.90;;;;;;;12.28;69.26;100383.88;5158113;27;20057;-87
2021/12/29 01:57:17;;;;;;;0.10;0.10;;;;;;;12.23;69.58;100385.00;5157210;27;20031;-87
2021/12/29 01:59:44;;;;;;;0.10;0.10;;;;;;;12.25;69.22;100394.63;5150896;27;20037;-87
2021/12/29 02:02:14;;;;;;;0.10;0.10;;;;;;;12.21;69.61;100387.69;5155511;27;20023;-87
2021/12/29 02:04:42;;;;;;;0.10;0.10;;;;;;;12.30;69.89;100402.47;5153190;27;20477;-86
2021/12/29 02:07:09;;;;;;;0.10;0.10;;;;;;;12.28;69.58;100402.47;5143086;27;20023;-87
2021/12/29 02:09:37;;;;;;;0.10;0.10;;;;;;;12.26;69.82;100406.13;5132318;27;20027;-86
2021/12/29 02:12:05;;;;;;;0.10;0.10;;;;;;;12.30;69.74;100402.47;5144698;27;20031;-85
2021/12/29 02:14:32;;;;;;;0.20;0.20;;;;;;;12.32;69.07;100411.22;5137387;27;20039;-86
2021/12/29 02:17:00;;;;;;;0.10;0.10;;;;;;;12.27;69.58;100400.78;5122279;27;20043;-86
2021/12/29 02:19:26;;;;;;;0.10;0.10;;;;;;;12.27;69.97;100408.75;5131790;27;20026;-87
2021/12/29 02:22:02;;;;;;;0.10;0.10;;;;;;;12.17;69.86;100401.97;5155789;27;20031;-85
2021/12/29 02:24:39;;;;;;;0.20;0.20;;;;;;;12.22;69.68;100407.16;5155468;27;20027;-87
2021/12/29 02:27:08;;;;;;;0.10;0.10;;;;;;;12.21;69.67;100400.97;5133365;27;20102;-87
2021/12/29 02:29:46;;;;;;;0.10;0.10;;;;;;;12.20;69.14;100417.84;5124602;27;20061;-87
2021/12/29 02:32:16;;;;;;;0.10;0.10;;;;;;;12.22;69.73;100425.75;5146701;27;20031;-86
2021/12/29 02:34:43;;;;;;;0.10;0.10;;;;;;;12.15;69.86;100419.78;5144910;27;20038;-87
2021/12/29 02:37:11;;;;;;;0.10;0.10;;;;;;;12.10;70.32;100409.31;5145832;27;20035;-84
2021/12/29 02:39:38;;;;;;;0.10;0.10;;;;;;;12.16;70.05;100410.88;5140996;27;20089;-87
2021/12/29 02:42:07;;;;;;;0.40;0.40;;;;;;;12.09;70.27;100414.66;5151194;27;20110;-81
2021/12/29 02:44:40;;;;;;;0.10;0.10;;;;;;;12.19;70.11;100429.38;5148330;27;20070;-87
2021/12/29 02:47:07;;;;;;;0.10;0.10;;;;;;;12.14;70.01;100441.94;5145908;27;20071;-86
2021/12/29 02:49:34;;;;;;;0.10;0.10;;;;;;;12.17;69.70;100439.16;5150047;27;20113;-85
2021/12/29 02:52:00;;;;;;;0.10;0.10;;;;;;;12.14;70.43;100440.13;5151408;27;20031;-87
2021/12/29 02:54:27;;;;;;;0.10;0.10;;;;;;;12.21;69.98;100443.47;5149799;27;20035;-87
2021/12/29 02:56:55;;;;;;;0.10;0.10;;;;;;;12.26;69.79;100449.50;5136162;27;20127;-88
2021/12/29 02:59:23;;;;;;;0.10;0.10;;;;;;;12.18;70.06;100454.19;5150864;27;20026;-88
2021/12/29 03:01:51;;;;;;;0.10;0.10;;;;;;;12.14;70.40;100455.22;5128919;27;20039;-87
2021/12/29 03:04:17;;;;;;;0.10;0.10;;;;;;;12.07;70.25;100456.34;5160102;27;20033;-86
2021/12/29 03:06:50;;;;;;;0.15;0.15;;;;;;;12.08;70.65;100471.34;5135203;27;20023;-88
2021/12/29 03:09:17;;;;;;;0.10;0.10;;;;;;;12.05;70.55;100472.31;5149556;27;20470;-86
2021/12/29 03:11:45;;;;;;;0.55;0.55;;;;;;;12.04;70.59;100469.72;5154948;27;20022;-88
2021/12/29 03:14:12;;;;;;;0.30;0.30;;;;;;;12.05;70.60;100474.97;5159259;27;20358;-88
2021/12/29 03:16:39;;;;;;;2.50;2.30;;;;;;;12.12;70.85;100479.19;5153754;27;20573;-88
2021/12/29 03:19:06;;;;;;;0.10;0.10;;;;;;;12.08;70.73;100482.81;5152686;27;20038;-88
2021/12/29 03:21:34;;;;;;;0.10;0.10;;;;;;;12.13;70.36;100488.84;5135328;27;20453;-86
2021/12/29 03:24:01;;;;;;;0.25;0.25;;;;;;;12.10;70.43;100488.97;5147777;27;20031;-87
2021/12/29 03:26:27;;;;;;;0.10;0.10;;;;;;;12.16;70.60;100495.00;5151212;27;20030;-89
2021/12/29 03:28:54;;;;;;;0.40;0.40;;;;;;;12.06;70.75;100499.72;5151077;27;20054;-89
2021/12/29 03:31:22;;;;;;;0.10;0.10;;;;;;;12.09;70.86;100499.66;5154159;27;20027;-89
2021/12/29 03:33:55;;;;;;;0.10;0.10;;;;;;;12.10;70.35;100504.00;5133557;27;20080;-89
2021/12/29 03:36:45;;;;;;;0.10;0.10;;;;;;;12.11;71.04;100511.97;5142967;27;20557;-86
2021/12/29 03:39:11;;;;;;;0.10;0.10;;;;;;;12.02;71.39;100524.66;5145666;27;20031;-89
2021/12/29 03:41:37;;;;;;;0.40;0.40;;;;;;;11.95;71.33;100523.91;5158207;27;20415;-89
2021/12/29 03:44:04;;;;;;;0.10;0.10;;;;;;;11.98;71.37;100527.38;5158103;27;20027;-89
2021/12/29 03:46:33;;;;;;;1.20;1.13;;;;;;;11.96;70.92;100537.19;5154421;27;20078;-89
2021/12/29 03:49:00;;;;;;;0.15;0.15;;;;;;;12.00;70.98;100534.44;5153145;27;20075;-88
2021/12/29 03:51:28;;;;;;;0.13;0.13;;;;;;;12.03;71.29;100547.63;5143593;27;20054;-90
2021/12/29 03:53:54;;;;;;;0.10;0.10;;;;;;;11.91;71.86;100552.38;5140446;27;20493;-90
2021/12/29 03:56:21;;;;;;;0.10;0.10;;;;;;;11.85;71.65;100543.72;5137237;27;20043;-89
2021/12/29 03:58:54;;;;;;;0.10;0.10;;;;;;;11.90;71.75;100537.34;5134435;27;20100;-89
2021/12/29 04:01:23;;;;;;;0.65;0.45;;;;;;;11.95;71.75;100539.84;5142404;27;20027;-89
2021/12/29 04:03:49;;;;;;;0.10;0.10;;;;;;;11.89;71.84;100543.56;5146951;27;20079;-89
2021/12/29 04:06:18;;;;;;;0.10;0.10;;;;;;;11.86;71.27;100537.50;5147211;27;20073;-84
2021/12/29 04:08:45;;;;;;;2.45;1.80;;;;;;;11.85;71.45;100544.59;5144689;27;20097;-88
2021/12/29 04:11:12;;;;;;;0.10;0.10;;;;;;;11.93;71.13;100542.56;5149276;27;20027;-88
2021/12/29 04:13:43;;;;;;;0.10;0.10;;;;;;;11.83;71.49;100546.41;5140620;27;20027;-87
2021/12/29 04:16:16;;;;;;;0.22;0.22;;;;;;;11.92;71.60;100543.47;5149858;27;20039;-89
2021/12/29 04:18:55;;;;;;;0.28;0.28;;;;;;;11.96;71.04;100542.50;5156690;27;20041;-90
2021/12/29 04:21:22;;;;;;;0.10;0.10;;;;;;;11.94;71.12;100551.41;5152321;27;20374;-88
2021/12/29 04:23:48;;;;;;;0.10;0.10;;;;;;;11.93;71.09;100542.56;5152286;27;20496;-85
2021/12/29 04:26:14;;;;;;;0.10;0.10;;;;;;;11.98;71.16;100543.31;5138431;27;20085;-86
2021/12/29 04:28:41;;;;;;;0.10;0.10;;;;;;;11.92;70.89;100562.06;5146838;27;20023;-89
2021/12/29 04:31:08;;;;;;;0.10;0.10;;;;;;;11.88;71.02;100560.41;5154224;27;20114;-89
2021/12/29 04:33:36;;;;;;;0.10;0.10;;;;;;;11.81;71.20;100575.66;5149815;27;20058;-89
2021/12/29 04:36:06;;;;;;;0.10;0.10;;;;;;;11.84;71.46;100569.41;5141185;27;20037;-88
2021/12/29 04:38:33;;;;;;;0.10;0.10;;;;;;;11.90;71.28;100566.56;5139862;27;20382;-89
2021/12/29 04:41:02;;;;;;;0.10;0.10;;;;;;;11.80;71.22;100575.69;5147616;27;20030;-88
2021/12/29 04:43:31;;;;;;;0.10;0.10;;;;;;;11.83;71.00;100578.28;5154423;27;20097;-87
2021/12/29 04:45:58;;;;;;;0.10;0.10;;;;;;;11.81;71.01;100594.25;5149566;27;20123;-87
2021/12/29 04:48:25;;;;;;;0.10;0.10;;;;;;;11.86;70.80;100599.41;5157449;27;20030;-86
2021/12/29 04:50:54;;;;;;;1.40;0.75;;;;;;;11.80;71.52;100599.56;5148473;27;20030;-89
2021/12/29 04:53:23;;;;;;;0.10;0.10;;;;;;;11.81;71.51;100604.88;5150342;27;20023;-90
2021/12/29 04:55:49;;;;;;;0.10;0.10;;;;;;;11.77;71.55;100618.25;5156937;27;20031;-88
2021/12/29 04:58:18;;;;;;;0.10;0.10;;;;;;;11.78;71.52;100606.75;5155850;27;20027;-89
2021/12/29 05:00:46;;;;;;;0.10;0.10;;;;;;;11.78;71.77;100614.69;5155883;27;20466;-86
2021/12/29 05:03:13;;;;;;;0.10;0.10;;;;;;;11.77;71.47;100615.59;5149469;27;20035;-86
2021/12/29 05:08:53;;;;;;;0.10;0.10;;;;;;;11.82;71.71;100613.69;4724790;27;12128783;-85
2021/12/29 05:11:20;;;;;;;1.25;1.17;;;;;;;11.79;71.23;100625.28;5105741;28;20070;-84
2021/12/29 05:13:46;;;;;;;0.32;0.32;;;;;;;11.72;71.80;100617.53;5106089;28;20020;-85
2021/12/29 05:16:34;;;;;;;0.10;0.10;;;;;;;11.82;70.79;100619.00;5100219;28;20074;-82
2021/12/29 05:19:00;;;;;;;0.45;0.45;;;;;;;11.76;71.57;100619.16;5094808;28;20044;-90
2021/12/29 05:21:26;;;;;;;0.10;0.10;;;;;;;11.73;71.24;100619.28;5104123;28;20116;-89
2021/12/29 05:23:54;;;;;;;0.10;0.10;;;;;;;11.79;71.46;100621.75;5101311;28;20125;-88
2021/12/29 05:26:22;;;;;;;0.10;0.10;;;;;;;11.80;71.07;100627.00;5100378;28;20533;-88
2021/12/29 05:28:48;;;;;;;0.60;0.60;;;;;;;11.83;71.31;100618.09;5102740;28;20044;-88
2021/12/29 05:31:18;;;;;;;0.30;0.30;;;;;;;11.89;70.53;100620.56;5104911;28;20032;-89
2021/12/29 05:33:44;;;;;;;0.10;0.10;;;;;;;11.81;70.72;100619.91;5111493;28;20029;-89
2021/12/29 05:36:18;;;;;;;0.10;0.10;;;;;;;11.82;71.21;100611.03;5105024;28;20025;-89
2021/12/29 05:38:44;;;;;;;0.13;0.13;;;;;;;11.79;70.91;100612.00;5100839;28;20067;-90
2021/12/29 05:41:10;;;;;;;0.10;0.10;;;;;;;11.81;71.09;100617.25;5104533;28;20039;-88
2021/12/29 05:43:36;;;;;;;0.10;0.10;;;;;;;11.76;70.94;100624.47;5104393;28;20043;-88
2021/12/29 05:46:03;;;;;;;0.10;0.10;;;;;;;11.77;70.90;100621.78;5100772;28;20055;-89
2021/12/29 05:48:29;;;;;;;0.38;0.38;;;;;;;11.87;70.86;100621.53;5107991;28;20046;-88
2021/12/29 05:50:56;;;;;;;0.10;0.10;;;;;;;11.89;70.22;100615.25;5105802;28;20028;-84
2021/12/29 05:53:23;;;;;;;0.10;0.10;;;;;;;11.89;70.46;100620.56;5102782;28;20039;-84
2021/12/29 05:55:56;;;;;;;0.10;0.10;;;;;;;11.88;70.45;100629.44;5101424;28;20527;-88
2021/12/29 05:58:24;;;;;;;0.20;0.20;;;;;;;11.91;70.32;100629.38;5101521;28;20043;-89
2021/12/29 06:00:50;;;;;;;0.20;0.20;;;;;;;11.91;70.33;100634.69;5110536;28;20098;-87
2021/12/29 06:03:23;;;;;;;0.08;0.08;;;;;;;11.98;70.01;100640.69;5104961;28;20048;-88
2021/12/29 06:05:49;;;;;;;;;;;;;;;12.11;70.17;100646.50;5104650;28;20054;-89
2021/12/29 06:08:15;;;;;;;0.10;0.10;;;;;;;11.92;69.86;100641.69;5104495;28;19916;-87
2021/12/29 06:10:49;;;;;;;0.20;0.20;;;;;;;11.90;70.29;100647.97;5091287;28;20029;-86
2021/12/29 06:13:15;;;;;;;0.05;0.05;;;;;;;11.93;70.16;100648.75;5088114;28;20031;-88
2021/12/29 06:15:41;;;;;;;0.10;0.10;;;;;;;11.91;70.55;100650.59;5091340;28;20075;-88
2021/12/29 06:18:07;;;;;;;0.10;0.10;;;;;;;11.88;70.13;100658.63;5098591;28;20452;-89
2021/12/29 06:20:38;;;;;;;0.45;0.45;;;;;;;11.88;70.02;100649.81;5090113;28;20035;-79
2021/12/29 06:23:12;;;;;;;0.10;0.10;;;;;;;11.84;70.45;100659.66;5083047;28;20112;-85
2021/12/29 06:25:48;;;;;;;0.10;0.10;;;;;;;11.81;70.18;100650.00;5080301;28;20424;-83
2021/12/29 06:28:14;;;;;;;0.10;0.10;;;;;;;11.84;70.13;100651.69;5078703;28;20090;-88
2021/12/29 06:30:42;;;;;;;0.17;0.17;;;;;;;11.83;69.81;100660.56;5085037;28;20028;-86
2021/12/29 06:33:08;;;;;;;0.35;0.35;;;;;;;11.80;69.76;100655.31;5081629;28;20032;-89
2021/12/29 06:35:36;;;;;;;0.10;0.10;;;;;;;11.85;70.43;100661.41;5083259;28;20080;-90
2021/12/29 06:38:02;;;;;;;0.10;0.10;;;;;;;11.85;70.14;100655.19;5089755;28;20060;-88
2021/12/29 06:40:28;;;;;;;0.10;0.10;;;;;;;11.87;69.77;100670.16;5084421;28;20028;-82
2021/12/29 06:42:54;;;;;;;0.10;0.10;;;;;;;11.85;70.46;100666.72;5074622;28;20356;-88
2021/12/29 06:45:29;;;;;;;0.10;0.10;;;;;;;11.93;70.34;100674.44;5086363;28;20040;-86
2021/12/29 06:47:56;;;;;;;0.15;0.15;;;;;;;11.85;70.53;100682.63;5084141;28;20063;-84
2021/12/29 06:50:22;;;;;;;0.10;0.10;;;;;;;11.84;69.82;100680.88;5091323;28;20056;-84
2021/12/29 06:52:48;;;;;;;0.10;0.10;;;;;;;11.86;70.03;100687.00;5076556;28;20477;-84
2021/12/29 06:55:15;;;;;;;0.10;0.10;;;;;;;11.81;70.04;100686.28;5076175;28;20044;-87
2021/12/29 06:57:41;;;;;;;1.02;0.63;;;;;;;11.82;70.53;100685.38;5073966;28;20391;-85
2021/12/29 07:00:08;;;;;;;0.10;0.10;;;;;;;11.84;70.02;100691.50;5059834;28;20052;-85
2021/12/29 07:02:35;;;;;;;0.20;0.20;;;;;;;11.86;69.95;100694.13;5084438;28;20774;-87
2021/12/29 07:05:03;;;;;;;0.10;0.10;;;;;;;11.87;69.82;100688.75;5074991;28;20029;-88
2021/12/29 07:07:29;;;;;;;0.10;0.10;;;;;;;11.84;69.45;100694.16;5066847;28;20016;-87
2021/12/29 07:09:55;;;;;;;0.10;0.10;;;;;;;11.89;69.98;100700.22;5074570;28;20039;-87
2021/12/29 07:12:33;;;;;;;0.20;0.20;;;;;;;11.87;69.91;100707.34;5077671;28;20115;-88
2021/12/29 07:15:01;;;;;;;0.10;0.10;;;;;;;11.83;69.96;100711.00;5066033;28;20086;-86
2021/12/29 07:17:31;;;;;;;0.10;0.10;;;;;;;11.92;70.06;100716.03;5070894;28;20465;-86
2021/12/29 07:20:04;;;;;;;0.63;0.63;;;;;;;11.95;70.05;100709.78;5074329;28;20376;-90
2021/12/29 07:22:30;;;;;;;0.10;0.10;;;;;;;11.93;69.86;100725.75;5077750;28;20052;-90
2021/12/29 07:24:57;;;;;;;0.10;0.10;;;;;;;11.88;70.07;100719.69;5074304;28;20093;-89
2021/12/29 07:27:37;;;;;;;0.10;0.10;;;;;;;11.94;69.94;100724.84;5071739;28;20055;-91
2021/12/29 07:30:04;;;;;;;1.55;0.75;;;;;;;11.83;69.78;100732.22;5076392;28;20523;-89
2021/12/29 07:32:31;;;;;;;0.10;0.10;;;;;;;11.86;69.72;100736.59;5077293;28;20116;-89
2021/12/29 07:34:57;;;;;;;0.38;0.38;;;;;;;11.85;69.59;100735.72;5061953;28;20074;-90
2021/12/29 07:37:23;;;;;;;0.10;0.10;;;;;;;11.88;69.75;100729.47;5067148;28;20037;-92
2021/12/29 07:39:50;;;;;;;0.30;0.30;;;;;;;11.89;69.01;100732.06;5066507;28;20027;-88
2021/12/29 07:42:16;;;;;;;0.77;0.77;;;;;;;11.80;69.45;100732.31;5075505;28;20024;-95
2021/12/29 07:44:45;;;;;;;0.10;0.10;;;;;;;11.85;68.83;100732.19;5071531;28;20028;-90
2021/12/29 07:47:13;;;;;;;0.57;0.57;;;;;;;11.86;69.01;100733.94;5073536;28;20140;-86
2021/12/29 07:49:40;;;;;;;0.10;0.10;;;;;;;11.89;69.33;100721.44;5072964;28;20043;-89
2021/12/29 07:52:06;;;;;;;0.10;0.10;;;;;;;11.88;68.50;100709.09;5069012;28;20399;-92
2021/12/29 07:54:32;;;;;;;0.10;0.10;;;;;;;11.89;68.99;100705.53;5069314;28;20041;-88
2021/12/29 07:56:58;;;;;;;0.10;0.10;;;;;;;11.89;69.48;100717.94;5067635;28;20028;-90
2021/12/29 07:59:24;;;;;;;0.15;0.15;;;;;;;11.80;68.44;100711.06;5063794;28;20052;-88
2021/12/29 08:01:51;;;;;;;0.75;0.75;;;;;;;11.83;68.74;100711.00;5057991;28;20036;-83
2021/12/29 08:04:21;;;;;;;0.35;0.35;;;;;;;11.78;68.76;100715.56;5055720;28;20539;-87
2021/12/29 08:06:48;;;;;;;0.13;0.13;;;;;;;11.72;69.05;100716.59;5059435;28;20075;-91
2021/12/29 08:09:14;;;;;;;0.52;0.52;;;;;;;11.72;69.43;100723.69;5052708;28;20067;-88
2021/12/29 08:11:44;;;;;;;0.10;0.10;;;;;;;11.73;68.92;100725.44;5060121;28;20033;-86
2021/12/29 08:14:10;;;;;;;0.10;0.10;;;;;;;11.71;69.44;100716.63;5058927;28;20102;-86
2021/12/29 08:16:37;;;;;;;0.17;0.17;;;;;;;11.63;69.23;100723.00;5059649;28;20104;-86
2021/12/29 08:19:04;;;;;;;4.38;0.88;;;;;;;11.65;69.66;100723.84;5063796;28;20078;-86
2021/12/29 08:21:31;;;;;;;0.10;0.10;;;;;;;11.64;70.07;100727.41;5066029;28;20056;-87
2021/12/29 08:23:57;;;;;;;0.30;0.30;;;;;;;11.64;69.93;100732.72;5061692;28;20558;-89
2021/12/29 08:26:23;;;;;;;0.10;0.10;;;;;;;11.63;69.81;100730.13;5056783;28;20051;-86
2021/12/29 08:28:50;;;;;;;0.10;0.10;;;;;;;11.61;69.73;100737.22;5066193;28;20059;-85
2021/12/29 08:31:17;;;;;;;0.25;0.25;;;;;;;11.59;69.96;100739.94;5059368;28;20036;-83
2021/12/29 08:33:43;;;;;;;0.20;0.20;;;;;;;11.64;69.92;100730.06;5063720;28;20120;-84
2021/12/29 08:36:09;;;;;;;0.10;0.10;;;;;;;11.64;70.08;100729.22;5056911;28;20033;-86
2021/12/29 08:38:36;;;;;;;0.38;0.38;;;;;;;11.64;69.86;100724.75;5065861;28;20032;-83
2021/12/29 08:41:03;;;;;;;0.10;0.10;;;;;;;11.69;69.67;100729.06;5071246;28;20040;-83
2021/12/29 08:43:31;;;;;;;0.10;0.10;;;;;;;11.70;69.87;100742.31;5058305;28;20430;-81
2021/12/29 08:45:57;;;;;;;0.10;0.10;;;;;;;11.74;70.24;100751.03;5072848;28;20020;-85
2021/12/29 08:48:24;;;;;;;0.10;0.10;;;;;;;11.71;69.85;100745.84;5072842;28;20037;-84
2021/12/29 08:50:50;;;;;;;0.15;0.15;;;;;;;11.70;69.96;100730.81;5073090;28;20029;-84
2021/12/29 08:53:17;;;;;;;0.10;0.10;;;;;;;11.77;69.63;100743.88;5068157;28;20079;-78
2021/12/29 08:55:47;;;;;;;1.08;1.08;;;;;;;11.71;69.41;100740.53;5068219;28;20048;-82
2021/12/29 08:58:14;;;;;;;0.55;0.55;;;;;;;11.73;69.58;100742.22;5069255;28;20032;-83
2021/12/29 09:00:40;;;;;;;0.10;0.10;;;;;;;11.76;69.51;100735.97;5070133;28;20040;-87
2021/12/29 09:03:07;;;;;;;0.10;0.10;;;;;;;11.77;69.54;100745.66;5067047;28;20047;-85
2021/12/29 09:05:53;;;;;;;0.20;0.20;;;;;;;11.87;69.21;100733.88;5065732;28;20492;-88
2021/12/29 09:08:20;;;;;;;0.43;0.28;;;;;;;11.80;69.83;100722.56;5070787;28;20113;-85
2021/12/29 09:10:46;;;;;;;0.10;0.10;;;;;;;11.81;69.96;100712.81;5072851;28;20032;-85
2021/12/29 09:13:14;;;;;;;0.10;0.10;;;;;;;11.81;69.77;100716.34;5072466;28;20020;-88
2021/12/29 09:15:41;;;;;;;0.10;0.10;;;;;;;11.81;69.32;100726.09;5067944;28;20056;-84
2021/12/29 09:18:08;;;;;;;0.10;0.10;;;;;;;11.82;69.54;100722.53;5071225;28;20024;-85
2021/12/29 09:20:37;;;;;;;0.10;0.10;;;;;;;11.74;69.17;100716.53;5070246;28;20032;-85
2021/12/29 09:23:07;;;;;;;0.10;0.10;;;;;;;11.75;69.17;100719.19;5073140;28;20376;-84
2021/12/29 09:26:02;;;;;;;0.10;0.10;;;;;;;11.81;68.96;100716.34;5072610;28;20059;-91
2021/12/29 09:28:30;;;;;;;0.10;0.10;;;;;;;11.73;69.12;100712.16;5058506;28;20048;-87
2021/12/29 09:30:56;;;;;;;0.45;0.43;;;;;;;11.72;69.69;100713.06;5073619;28;20029;-79
2021/12/29 09:33:23;;;;;;;0.10;0.10;;;;;;;11.74;69.09;100709.47;5073088;28;20032;-84
2021/12/29 09:35:52;;;;;;;0.10;0.10;;;;;;;11.73;69.41;100717.47;5072266;28;20024;-88
2021/12/29 09:38:20;;;;;;;0.10;0.10;;;;;;;11.74;69.69;100724.50;5068975;28;20380;-90
2021/12/29 09:40:47;;;;;;;0.10;0.10;;;;;;;11.71;69.13;100727.25;5067599;28;20040;-88
2021/12/29 09:43:14;;;;;;;0.10;0.10;;;;;;;11.67;68.83;100725.59;5061129;28;20066;-83
2021/12/29 09:45:42;;;;;;;0.10;0.10;;;;;;;11.64;69.06;100722.09;5069955;28;20024;-84
2021/12/29 09:48:10;;;;;;;0.63;0.63;;;;;;;11.64;69.08;100723.91;5061479;28;20467;-91
2021/12/29 09:50:37;;;;;;;0.20;0.20;;;;;;;11.67;69.65;100725.59;5068956;28;20024;-86
2021/12/29 09:53:06;;;;;;;0.10;0.10;;;;;;;11.69;68.82;100718.44;5072241;28;20104;-88
2021/12/29 09:55:32;;;;;;;0.30;0.30;;;;;;;11.66;68.91;100700.81;5074036;28;20017;-85
2021/12/29 09:58:07;;;;;;;0.10;0.10;;;;;;;11.75;68.70;100691.75;5063103;28;20110;-88
2021/12/29 10:00:40;;;;;;;0.32;0.32;;;;;;;11.70;69.10;100709.59;5071007;28;20029;-85
2021/12/29 10:03:09;;;;;;;0.40;0.40;;;;;;;11.70;69.13;100704.28;5065459;28;20663;-85
2021/12/29 10:05:38;;;;;;;0.10;0.10;;;;;;;11.68;68.53;100695.50;5071711;28;20040;-81
2021/12/29 10:11:04;;;;;;;0.10;0.10;;;;;;;11.76;68.87;100683.75;5104885;27;20393;-83
2021/12/29 10:13:33;;;;;;;0.20;0.20;;;;;;;11.74;68.32;100674.97;5107150;28;20109;-76
2021/12/29 10:16:07;;;;;;;0.10;0.10;;;;;;;11.83;68.88;100673.84;5103590;28;20027;-77
2021/12/29 10:18:37;;;;;;;0.28;0.28;;;;;;;11.82;68.56;100672.97;5103070;28;20035;-79
2021/12/29 10:21:11;;;;;;;1.27;0.80;;;;;;;11.84;68.24;100672.94;5102806;28;20054;-82
2021/12/29 10:23:42;;;;;;;0.10;0.10;;;;;;;11.81;68.59;100667.69;5105007;28;20032;-82
2021/12/29 10:26:18;;;;;;;0.20;0.20;;;;;;;11.90;67.87;100671.88;5099888;28;21320;-90
2021/12/29 10:28:48;;;;;;;0.10;0.10;;;;;;;11.85;68.46;100672.00;5090333;28;20479;-83
2021/12/29 10:31:19;;;;;;;0.10;0.10;;;;;;;11.92;68.31;100670.06;5100506;28;20024;-82
2021/12/29 10:33:49;;;;;;;0.10;0.10;;;;;;;11.98;68.56;100672.56;5108149;28;20487;-82
2021/12/29 10:36:19;;;;;;;0.00;0.00;;;;;;;12.02;68.33;100668.91;5102860;28;20026;-80
2021/12/29 10:38:50;;;;;;;0.20;0.20;;;;;;;11.99;67.98;100671.66;5102227;28;20031;-83
2021/12/29 10:41:16;;;;;;;0.10;0.10;;;;;;;12.05;68.62;100662.63;5099226;28;20031;-81
2021/12/29 10:43:52;;;;;;;0.73;0.73;;;;;;;12.07;68.19;100672.28;5105146;28;20028;-83
2021/12/29 10:46:21;;;;;;;0.38;0.38;;;;;;;12.04;67.86;100668.88;5108717;28;20024;-81
2021/12/29 10:48:50;;;;;;;0.10;0.10;;;;;;;11.98;67.81;100678.72;5099322;28;20024;-83
2021/12/29 10:51:16;;;;;;;0.20;0.20;;;;;;;11.93;68.02;100685.94;5098092;28;20096;-83
2021/12/29 10:53:43;;;;;;;0.10;0.10;;;;;;;11.95;68.08;100688.53;5104399;28;20025;-82
2021/12/29 10:56:25;;;;;;;0.08;0.08;;;;;;;12.09;67.91;100693.50;5103439;28;20087;-83
2021/12/29 10:58:53;;;;;;;0.20;0.20;;;;;;;12.04;67.88;100698.09;5106053;28;20051;-81
2021/12/29 11:01:21;;;;;;;1.30;1.23;;;;;;;12.01;67.65;100693.69;5098581;28;20085;-82
2021/12/29 11:03:52;;;;;;;0.10;0.10;;;;;;;12.03;68.07;100683.06;5105062;28;20655;-86
2021/12/29 11:06:21;;;;;;;0.10;0.10;;;;;;;12.07;69.48;100684.69;5104738;28;20098;-78
2021/12/29 11:11:35;;;;;;;0.30;0.30;;;;;;;12.02;68.29;100657.41;5090017;27;1517787;-82
2021/12/29 11:14:21;;;;;;;0.38;0.38;;;;;;;12.03;67.69;100651.19;5117049;27;20494;-81
2021/12/29 11:16:53;;;;;;;0.75;0.75;;;;;;;11.94;68.24;100637.22;5104151;27;20047;-83
2021/12/29 11:19:20;;;;;;;0.10;0.10;;;;;;;11.93;68.34;100638.13;5094576;28;20028;-81
2021/12/29 11:21:46;;;;;;;0.13;0.13;;;;;;;12.00;67.99;100632.69;5100612;28;21531;-81
2021/12/29 11:27:12;;;;;;;0.10;0.10;;;;;;;12.08;68.16;100641.31;5054357;28;20402;-81
2021/12/29 11:29:49;;;;;;;0.25;0.25;;;;;;;12.08;68.71;100630.69;5047828;28;20041;-83
2021/12/29 11:32:22;;;;;;;0.10;0.10;;;;;;;12.10;68.69;100626.19;5050113;28;20021;-81
2021/12/29 11:34:59;;;;;;;10.45;0.82;;;;;;;12.10;68.13;100626.19;5049065;28;20108;-84
2021/12/29 11:37:25;;;;;;;0.20;0.20;;;;;;;12.09;68.41;100629.78;5048442;28;20049;-83
2021/12/29 11:39:51;;;;;;;0.55;0.55;;;;;;;12.07;68.07;100627.13;5045919;28;20427;-83
2021/12/29 11:42:18;;;;;;;0.20;0.20;;;;;;;12.05;68.46;100625.44;5049990;28;20035;-83